sensor_id;sensor_type;location;lat;lon;timestamp;pressure;altitude;pressure_sealevel;temperature;humidity
59053;BME280;44843;44.728;10.396;2022-08-01T00:00:32;100303.41;;;25.01;nan
59053;BME280;44843;44.728;10.396;2022-08-01T00:02:59;100299.41;;;24.91;nan
59053;BME280;44843;44.728;10.396;2022-08-01T00:05:25;100300.03;;;24.93;nan
59053;BME280;44843;44.728;10.396;2022-08-01T00:07:50;100302.16;;;24.82;nan
59053;BME280;44843;44.728;10.396;2022-08-01T00:10:16;100306.28;;;24.70;nan
59053;BME280;44843;44.728;10.396;2022-08-01T00:12:42;100303.19;;;24.66;nan
59053;BME280;44843;44.728;10.396;2022-08-01T00:15:09;100304.53;;;24.62;nan
59053;BME280;44843;44.728;10.396;2022-08-01T00:17:35;100304.25;;;24.72;nan
59053;BME280;44843;44.728;10.396;2022-08-01T00:20:01;100299.88;;;24.64;nan
59053;BME280;44843;44.728;10.396;2022-08-01T00:22:29;100299.56;;;24.59;nan
59053;BME280;44843;44.728;10.396;2022-08-01T00:24:55;100298.09;;;24.57;nan
59053;BME280;44843;44.728;10.396;2022-08-01T00:27:20;100317.53;;;24.42;nan
59053;BME280;44843;44.728;10.396;2022-08-01T00:29:46;100307.72;;;24.43;nan
59053;BME280;44843;44.728;10.396;2022-08-01T00:32:11;100304.75;;;24.38;nan
59053;BME280;44843;44.728;10.396;2022-08-01T00:34:37;100304.03;;;24.44;nan
59053;BME280;44843;44.728;10.396;2022-08-01T00:37:02;100298.25;;;24.40;nan
59053;BME280;44843;44.728;10.396;2022-08-01T00:39:27;100303.28;;;24.35;nan
59053;BME280;44843;44.728;10.396;2022-08-01T00:41:53;100306.59;;;24.37;nan
59053;BME280;44843;44.728;10.396;2022-08-01T00:44:18;100299.25;;;24.39;nan
59053;BME280;44843;44.728;10.396;2022-08-01T00:46:44;100302.19;;;24.44;nan
59053;BME280;44843;44.728;10.396;2022-08-01T00:49:09;100303.72;;;24.24;nan
59053;BME280;44843;44.728;10.396;2022-08-01T00:51:34;100303.16;;;24.29;nan
59053;BME280;44843;44.728;10.396;2022-08-01T00:54:00;100300.97;;;24.32;nan
59053;BME280;44843;44.728;10.396;2022-08-01T00:56:27;100302.63;;;24.33;nan
59053;BME280;44843;44.728;10.396;2022-08-01T00:58:54;100310.88;;;24.23;nan
59053;BME280;44843;44.728;10.396;2022-08-01T01:01:21;100308.31;;;24.30;nan
59053;BME280;44843;44.728;10.396;2022-08-01T01:03:48;100300.28;;;24.15;nan
59053;BME280;44843;44.728;10.396;2022-08-01T01:06:26;100305.41;;;24.02;nan
59053;BME280;44843;44.728;10.396;2022-08-01T01:09:28;100304.22;;;24.04;nan
59053;BME280;44843;44.728;10.396;2022-08-01T01:14:30;100307.03;;;23.88;nan
59053;BME280;44843;44.728;10.396;2022-08-01T01:17:00;100307.97;;;23.95;nan
59053;BME280;44843;44.728;10.396;2022-08-01T01:19:30;100311.69;;;23.86;nan
59053;BME280;44843;44.728;10.396;2022-08-01T01:22:18;100306.59;;;23.76;nan
59053;BME280;44843;44.728;10.396;2022-08-01T01:25:18;100302.31;;;23.67;nan
59053;BME280;44843;44.728;10.396;2022-08-01T01:28:06;100309.59;;;23.73;nan
59053;BME280;44843;44.728;10.396;2022-08-01T01:30:35;100299.94;;;23.72;nan
59053;BME280;44843;44.728;10.396;2022-08-01T01:33:06;100300.28;;;23.69;nan
59053;BME280;44843;44.728;10.396;2022-08-01T01:35:34;100303.19;;;23.59;nan
59053;BME280;44843;44.728;10.396;2022-08-01T01:38:09;100303.97;;;23.68;nan
59053;BME280;44843;44.728;10.396;2022-08-01T01:40:36;100293.84;;;23.63;nan
59053;BME280;44843;44.728;10.396;2022-08-01T01:43:03;100288.28;;;23.73;nan
59053;BME280;44843;44.728;10.396;2022-08-01T01:45:30;100294.25;;;23.83;nan
59053;BME280;44843;44.728;10.396;2022-08-01T01:47:56;100289.91;;;23.82;nan
59053;BME280;44843;44.728;10.396;2022-08-01T01:50:23;100289.50;;;23.94;nan
59053;BME280;44843;44.728;10.396;2022-08-01T01:52:51;100288.72;;;23.85;nan
59053;BME280;44843;44.728;10.396;2022-08-01T01:55:19;100293.16;;;23.93;nan
59053;BME280;44843;44.728;10.396;2022-08-01T01:57:48;100296.00;;;23.91;nan
59053;BME280;44843;44.728;10.396;2022-08-01T02:00:15;100295.34;;;23.89;nan
59053;BME280;44843;44.728;10.396;2022-08-01T02:02:42;100300.69;;;23.89;nan
59053;BME280;44843;44.728;10.396;2022-08-01T02:05:11;100289.50;;;23.94;nan
59053;BME280;44843;44.728;10.396;2022-08-01T02:07:37;100295.47;;;23.96;nan
59053;BME280;44843;44.728;10.396;2022-08-01T02:10:05;100288.44;;;23.80;nan
59053;BME280;44843;44.728;10.396;2022-08-01T02:12:35;100296.03;;;23.60;nan
59053;BME280;44843;44.728;10.396;2022-08-01T02:15:02;100300.66;;;23.66;nan
59053;BME280;44843;44.728;10.396;2022-08-01T02:17:29;100295.22;;;23.59;nan
59053;BME280;44843;44.728;10.396;2022-08-01T02:19:55;100297.38;;;23.56;nan
59053;BME280;44843;44.728;10.396;2022-08-01T02:23:15;100294.44;;;23.51;nan
59053;BME280;44843;44.728;10.396;2022-08-01T02:28:05;100292.63;;;23.43;nan
59053;BME280;44843;44.728;10.396;2022-08-01T02:30:36;100286.00;;;23.39;nan
59053;BME280;44843;44.728;10.396;2022-08-01T02:33:12;100290.50;;;23.38;nan
59053;BME280;44843;44.728;10.396;2022-08-01T02:35:42;100292.09;;;23.24;nan
59053;BME280;44843;44.728;10.396;2022-08-01T02:38:10;100291.75;;;23.19;nan
59053;BME280;44843;44.728;10.396;2022-08-01T02:40:47;100286.91;;;23.31;nan
59053;BME280;44843;44.728;10.396;2022-08-01T02:43:18;100286.06;;;23.31;nan
59053;BME280;44843;44.728;10.396;2022-08-01T02:45:48;100294.91;;;23.23;nan
59053;BME280;44843;44.728;10.396;2022-08-01T02:48:17;100298.09;;;23.18;nan
59053;BME280;44843;44.728;10.396;2022-08-01T02:50:46;100295.31;;;23.12;nan
59053;BME280;44843;44.728;10.396;2022-08-01T02:53:13;100296.44;;;23.17;nan
59053;BME280;44843;44.728;10.396;2022-08-01T02:55:40;100292.78;;;23.18;nan
59053;BME280;44843;44.728;10.396;2022-08-01T02:58:07;100289.78;;;23.13;nan
59053;BME280;44843;44.728;10.396;2022-08-01T03:00:34;100301.44;;;23.12;nan
59053;BME280;44843;44.728;10.396;2022-08-01T03:03:01;100300.63;;;23.12;nan
59053;BME280;44843;44.728;10.396;2022-08-01T03:05:29;100304.28;;;23.11;nan
59053;BME280;44843;44.728;10.396;2022-08-01T03:08:07;100303.59;;;23.17;nan
59053;BME280;44843;44.728;10.396;2022-08-01T03:10:36;100298.41;;;23.23;nan
59053;BME280;44843;44.728;10.396;2022-08-01T03:13:03;100299.72;;;23.28;nan
59053;BME280;44843;44.728;10.396;2022-08-01T03:15:32;100307.41;;;23.22;nan
59053;BME280;44843;44.728;10.396;2022-08-01T03:17:59;100310.50;;;23.26;nan
59053;BME280;44843;44.728;10.396;2022-08-01T03:20:27;100304.72;;;23.22;nan
59053;BME280;44843;44.728;10.396;2022-08-01T03:22:53;100313.69;;;23.21;nan
59053;BME280;44843;44.728;10.396;2022-08-01T03:25:20;100312.88;;;23.21;nan
59053;BME280;44843;44.728;10.396;2022-08-01T03:27:51;100308.09;;;23.08;nan
59053;BME280;44843;44.728;10.396;2022-08-01T03:30:20;100311.13;;;22.97;nan
59053;BME280;44843;44.728;10.396;2022-08-01T03:32:46;100308.81;;;22.94;nan
59053;BME280;44843;44.728;10.396;2022-08-01T03:35:11;100304.84;;;22.90;nan
59053;BME280;44843;44.728;10.396;2022-08-01T03:37:46;100307.16;;;22.84;nan
59053;BME280;44843;44.728;10.396;2022-08-01T03:40:23;100299.19;;;22.84;nan
59053;BME280;44843;44.728;10.396;2022-08-01T03:42:58;100305.34;;;22.85;nan
59053;BME280;44843;44.728;10.396;2022-08-01T03:45:32;100311.50;;;22.77;nan
59053;BME280;44843;44.728;10.396;2022-08-01T03:48:00;100309.38;;;22.73;nan
59053;BME280;44843;44.728;10.396;2022-08-01T03:50:27;100309.50;;;22.79;nan
59053;BME280;44843;44.728;10.396;2022-08-01T03:52:54;100310.53;;;22.70;nan
59053;BME280;44843;44.728;10.396;2022-08-01T03:55:23;100312.38;;;22.70;nan
59053;BME280;44843;44.728;10.396;2022-08-01T03:57:50;100310.53;;;22.70;nan
59053;BME280;44843;44.728;10.396;2022-08-01T04:00:16;100318.81;;;22.75;nan
59053;BME280;44843;44.728;10.396;2022-08-01T04:02:45;100314.81;;;22.79;nan
59053;BME280;44843;44.728;10.396;2022-08-01T04:05:11;100320.44;;;22.93;nan
59053;BME280;44843;44.728;10.396;2022-08-01T04:07:37;100327.06;;;22.97;nan
59053;BME280;44843;44.728;10.396;2022-08-01T04:10:05;100316.38;;;23.13;nan
59053;BME280;44843;44.728;10.396;2022-08-01T04:12:31;100323.53;;;23.13;nan
59053;BME280;44843;44.728;10.396;2022-08-01T04:14:57;100324.56;;;23.12;nan
59053;BME280;44843;44.728;10.396;2022-08-01T04:17:23;100333.63;;;23.26;nan
59053;BME280;44843;44.728;10.396;2022-08-01T04:19:50;100328.13;;;23.35;nan
59053;BME280;44843;44.728;10.396;2022-08-01T04:22:15;100326.16;;;23.29;nan
59053;BME280;44843;44.728;10.396;2022-08-01T04:24:44;100330.97;;;23.26;nan
59053;BME280;44843;44.728;10.396;2022-08-01T04:27:19;100333.31;;;23.29;nan
59053;BME280;44843;44.728;10.396;2022-08-01T04:29:46;100329.97;;;23.27;nan
59053;BME280;44843;44.728;10.396;2022-08-01T04:32:14;100329.94;;;23.35;nan
59053;BME280;44843;44.728;10.396;2022-08-01T04:34:41;100338.22;;;23.40;nan
59053;BME280;44843;44.728;10.396;2022-08-01T04:37:11;100337.31;;;23.56;nan
59053;BME280;44843;44.728;10.396;2022-08-01T04:39:39;100347.59;;;23.59;nan
59053;BME280;44843;44.728;10.396;2022-08-01T04:42:07;100349.50;;;23.73;nan
59053;BME280;44843;44.728;10.396;2022-08-01T04:44:32;100350.19;;;23.75;nan
59053;BME280;44843;44.728;10.396;2022-08-01T04:46:59;100348.66;;;23.81;nan
59053;BME280;44843;44.728;10.396;2022-08-01T04:49:32;100346.47;;;23.84;nan
59053;BME280;44843;44.728;10.396;2022-08-01T04:51:57;100347.91;;;23.95;nan
59053;BME280;44843;44.728;10.396;2022-08-01T04:54:34;100341.63;;;24.11;nan
59053;BME280;44843;44.728;10.396;2022-08-01T04:57:03;100340.84;;;24.25;nan
59053;BME280;44843;44.728;10.396;2022-08-01T04:59:29;100346.09;;;24.34;nan
59053;BME280;44843;44.728;10.396;2022-08-01T05:04:34;100348.38;;;24.75;nan
59053;BME280;44843;44.728;10.396;2022-08-01T05:07:00;100345.91;;;24.88;nan
59053;BME280;44843;44.728;10.396;2022-08-01T05:09:26;100346.47;;;25.13;nan
59053;BME280;44843;44.728;10.396;2022-08-01T05:11:52;100343.25;;;25.33;nan
59053;BME280;44843;44.728;10.396;2022-08-01T05:14:17;100342.75;;;25.44;nan
59053;BME280;44843;44.728;10.396;2022-08-01T05:16:42;100340.94;;;25.66;nan
59053;BME280;44843;44.728;10.396;2022-08-01T05:19:08;100355.53;;;25.85;nan
59053;BME280;44843;44.728;10.396;2022-08-01T05:21:34;100353.31;;;25.88;nan
59053;BME280;44843;44.728;10.396;2022-08-01T05:23:59;100358.50;;;25.90;nan
59053;BME280;44843;44.728;10.396;2022-08-01T05:26:25;100348.69;;;25.97;nan
59053;BME280;44843;44.728;10.396;2022-08-01T05:28:50;100354.72;;;26.06;nan
59053;BME280;44843;44.728;10.396;2022-08-01T05:31:16;100364.81;;;26.32;nan
59053;BME280;44843;44.728;10.396;2022-08-01T05:33:41;100352.97;;;26.41;nan
59053;BME280;44843;44.728;10.396;2022-08-01T05:36:06;100366.53;;;26.61;nan
59053;BME280;44843;44.728;10.396;2022-08-01T05:38:32;100361.59;;;26.65;nan
59053;BME280;44843;44.728;10.396;2022-08-01T05:40:57;100359.22;;;26.48;nan
59053;BME280;44843;44.728;10.396;2022-08-01T05:43:23;100367.94;;;26.85;nan
59053;BME280;44843;44.728;10.396;2022-08-01T05:45:48;100364.22;;;30.75;nan
59053;BME280;44843;44.728;10.396;2022-08-01T05:48:13;100369.69;;;31.42;nan
59053;BME280;44843;44.728;10.396;2022-08-01T05:50:39;100366.78;;;31.74;nan
59053;BME280;44843;44.728;10.396;2022-08-01T05:53:04;100374.75;;;33.29;nan
59053;BME280;44843;44.728;10.396;2022-08-01T05:55:30;100371.53;;;34.91;nan
59053;BME280;44843;44.728;10.396;2022-08-01T05:57:58;100375.19;;;35.73;nan
59053;BME280;44843;44.728;10.396;2022-08-01T06:00:23;100385.75;;;36.66;nan
59053;BME280;44843;44.728;10.396;2022-08-01T06:02:48;100380.72;;;36.90;nan
59053;BME280;44843;44.728;10.396;2022-08-01T06:05:14;100379.28;;;37.45;nan
59053;BME280;44843;44.728;10.396;2022-08-01T06:07:40;100376.38;;;37.78;nan
59053;BME280;44843;44.728;10.396;2022-08-01T06:10:06;100375.03;;;37.70;nan
59053;BME280;44843;44.728;10.396;2022-08-01T06:12:33;100375.56;;;38.39;nan
59053;BME280;44843;44.728;10.396;2022-08-01T06:14:58;100375.50;;;38.74;nan
59053;BME280;44843;44.728;10.396;2022-08-01T06:17:24;100379.34;;;38.68;nan
59053;BME280;44843;44.728;10.396;2022-08-01T06:19:49;100383.41;;;36.85;nan
59053;BME280;44843;44.728;10.396;2022-08-01T06:22:15;100384.00;;;31.73;nan
59053;BME280;44843;44.728;10.396;2022-08-01T06:24:40;100382.75;;;30.08;nan
59053;BME280;44843;44.728;10.396;2022-08-01T06:27:06;100376.59;;;30.57;nan
59053;BME280;44843;44.728;10.396;2022-08-01T06:29:31;100384.94;;;30.49;nan
59053;BME280;44843;44.728;10.396;2022-08-01T06:31:57;100375.59;;;30.27;nan
59053;BME280;44843;44.728;10.396;2022-08-01T06:34:23;100375.19;;;30.23;nan
59053;BME280;44843;44.728;10.396;2022-08-01T06:36:48;100373.94;;;29.55;nan
59053;BME280;44843;44.728;10.396;2022-08-01T06:39:14;100375.03;;;29.86;nan
59053;BME280;44843;44.728;10.396;2022-08-01T06:41:39;100382.56;;;29.71;nan
59053;BME280;44843;44.728;10.396;2022-08-01T06:44:07;100381.56;;;29.72;nan
59053;BME280;44843;44.728;10.396;2022-08-01T06:46:32;100379.06;;;30.02;nan
59053;BME280;44843;44.728;10.396;2022-08-01T06:48:58;100371.69;;;29.91;nan
59053;BME280;44843;44.728;10.396;2022-08-01T06:51:23;100376.38;;;30.02;nan
59053;BME280;44843;44.728;10.396;2022-08-01T06:53:48;100380.53;;;30.05;nan
59053;BME280;44843;44.728;10.396;2022-08-01T06:56:14;100382.25;;;30.24;nan
59053;BME280;44843;44.728;10.396;2022-08-01T06:58:39;100379.88;;;32.78;nan
59053;BME280;44843;44.728;10.396;2022-08-01T07:01:05;100384.00;;;39.33;nan
59053;BME280;44843;44.728;10.396;2022-08-01T07:03:32;100382.97;;;41.52;nan
59053;BME280;44843;44.728;10.396;2022-08-01T07:05:57;100385.03;;;42.31;nan
59053;BME280;44843;44.728;10.396;2022-08-01T07:08:23;100389.63;;;42.64;nan
59053;BME280;44843;44.728;10.396;2022-08-01T07:10:48;100392.44;;;39.42;nan
59053;BME280;44843;44.728;10.396;2022-08-01T07:13:14;100388.38;;;35.37;nan
59053;BME280;44843;44.728;10.396;2022-08-01T07:15:43;100389.00;;;32.77;nan
59053;BME280;44843;44.728;10.396;2022-08-01T07:18:08;100386.97;;;31.53;nan
59053;BME280;44843;44.728;10.396;2022-08-01T07:20:34;100384.50;;;30.96;nan
59053;BME280;44843;44.728;10.396;2022-08-01T07:22:59;100384.88;;;30.99;nan
59053;BME280;44843;44.728;10.396;2022-08-01T07:25:25;100393.22;;;30.73;nan
59053;BME280;44843;44.728;10.396;2022-08-01T07:27:50;100383.78;;;30.64;nan
59053;BME280;44843;44.728;10.396;2022-08-01T07:30:15;100387.03;;;30.47;nan
59053;BME280;44843;44.728;10.396;2022-08-01T07:32:41;100372.97;;;30.45;nan
59053;BME280;44843;44.728;10.396;2022-08-01T07:35:07;100380.75;;;30.28;nan
59053;BME280;44843;44.728;10.396;2022-08-01T07:37:32;100383.25;;;30.55;nan
59053;BME280;44843;44.728;10.396;2022-08-01T07:39:58;100381.22;;;30.50;nan
59053;BME280;44843;44.728;10.396;2022-08-01T07:42:23;100382.28;;;30.68;nan
59053;BME280;44843;44.728;10.396;2022-08-01T07:44:49;100377.94;;;30.48;nan
59053;BME280;44843;44.728;10.396;2022-08-01T07:47:14;100377.59;;;30.38;nan
59053;BME280;44843;44.728;10.396;2022-08-01T07:49:40;100377.56;;;30.63;nan
59053;BME280;44843;44.728;10.396;2022-08-01T07:52:06;100372.03;;;30.58;nan
59053;BME280;44843;44.728;10.396;2022-08-01T07:54:32;100365.09;;;30.69;nan
59053;BME280;44843;44.728;10.396;2022-08-01T07:56:57;100363.94;;;30.83;nan
59053;BME280;44843;44.728;10.396;2022-08-01T07:59:23;100363.34;;;30.99;nan
59053;BME280;44843;44.728;10.396;2022-08-01T08:01:49;100365.31;;;30.92;nan
59053;BME280;44843;44.728;10.396;2022-08-01T08:04:16;100369.06;;;30.66;nan
59053;BME280;44843;44.728;10.396;2022-08-01T08:06:41;100360.84;;;30.79;nan
59053;BME280;44843;44.728;10.396;2022-08-01T08:09:07;100362.94;;;30.77;nan
59053;BME280;44843;44.728;10.396;2022-08-01T08:11:33;100363.09;;;30.83;nan
59053;BME280;44843;44.728;10.396;2022-08-01T08:13:58;100366.44;;;30.59;nan
59053;BME280;44843;44.728;10.396;2022-08-01T08:16:23;100359.13;;;30.67;nan
59053;BME280;44843;44.728;10.396;2022-08-01T08:18:49;100362.78;;;30.72;nan
59053;BME280;44843;44.728;10.396;2022-08-01T08:21:14;100374.88;;;30.88;nan
59053;BME280;44843;44.728;10.396;2022-08-01T08:23:40;100374.28;;;30.61;nan
59053;BME280;44843;44.728;10.396;2022-08-01T08:26:24;100368.19;;;30.72;nan
59053;BME280;44843;44.728;10.396;2022-08-01T08:28:50;100374.06;;;30.63;nan
59053;BME280;44843;44.728;10.396;2022-08-01T08:31:16;100374.38;;;30.73;nan
59053;BME280;44843;44.728;10.396;2022-08-01T08:33:41;100367.03;;;30.62;nan
59053;BME280;44843;44.728;10.396;2022-08-01T08:36:06;100365.84;;;30.57;nan
59053;BME280;44843;44.728;10.396;2022-08-01T08:38:32;100365.59;;;30.59;nan
59053;BME280;44843;44.728;10.396;2022-08-01T08:40:57;100367.34;;;30.72;nan
59053;BME280;44843;44.728;10.396;2022-08-01T08:43:24;100366.91;;;30.75;nan
59053;BME280;44843;44.728;10.396;2022-08-01T08:45:51;100369.81;;;30.73;nan
59053;BME280;44843;44.728;10.396;2022-08-01T08:48:17;100363.75;;;30.59;nan
59053;BME280;44843;44.728;10.396;2022-08-01T08:50:44;100373.25;;;30.62;nan
59053;BME280;44843;44.728;10.396;2022-08-01T08:53:13;100373.31;;;30.55;nan
59053;BME280;44843;44.728;10.396;2022-08-01T08:55:41;100366.66;;;30.58;nan
59053;BME280;44843;44.728;10.396;2022-08-01T08:58:11;100367.66;;;30.64;nan
59053;BME280;44843;44.728;10.396;2022-08-01T09:00:39;100361.75;;;30.73;nan
59053;BME280;44843;44.728;10.396;2022-08-01T09:03:05;100356.13;;;30.75;nan
59053;BME280;44843;44.728;10.396;2022-08-01T09:05:30;100364.09;;;30.63;nan
59053;BME280;44843;44.728;10.396;2022-08-01T09:07:56;100357.91;;;30.44;nan
59053;BME280;44843;44.728;10.396;2022-08-01T09:10:22;100364.34;;;30.80;nan
59053;BME280;44843;44.728;10.396;2022-08-01T09:15:42;100362.16;;;31.14;nan
59053;BME280;44843;44.728;10.396;2022-08-01T09:18:24;100355.75;;;31.27;nan
59053;BME280;44843;44.728;10.396;2022-08-01T09:20:51;100364.69;;;31.27;nan
59053;BME280;44843;44.728;10.396;2022-08-01T09:26:08;100353.06;;;31.27;nan
59053;BME280;44843;44.728;10.396;2022-08-01T09:28:33;100344.66;;;31.23;nan
59053;BME280;44843;44.728;10.396;2022-08-01T09:31:05;100351.31;;;31.20;nan
59053;BME280;44843;44.728;10.396;2022-08-01T09:33:51;100342.69;;;31.30;nan
59053;BME280;44843;44.728;10.396;2022-08-01T09:36:19;100344.91;;;31.33;nan
59053;BME280;44843;44.728;10.396;2022-08-01T09:38:45;100340.59;;;31.32;nan
59053;BME280;44843;44.728;10.396;2022-08-01T09:41:10;100340.22;;;31.29;nan
59053;BME280;44843;44.728;10.396;2022-08-01T09:43:36;100341.78;;;31.18;nan
59053;BME280;44843;44.728;10.396;2022-08-01T09:46:11;100344.56;;;31.11;nan
59053;BME280;44843;44.728;10.396;2022-08-01T09:48:37;100343.91;;;30.97;nan
59053;BME280;44843;44.728;10.396;2022-08-01T09:51:05;100337.19;;;30.88;nan
59053;BME280;44843;44.728;10.396;2022-08-01T09:53:46;100344.44;;;30.88;nan
59053;BME280;44843;44.728;10.396;2022-08-01T09:56:13;100334.03;;;30.91;nan
59053;BME280;44843;44.728;10.396;2022-08-01T09:58:59;100327.50;;;30.80;nan
59053;BME280;44843;44.728;10.396;2022-08-01T10:01:25;100329.16;;;30.82;nan
59053;BME280;44843;44.728;10.396;2022-08-01T10:04:10;100321.91;;;30.82;nan
59053;BME280;44843;44.728;10.396;2022-08-01T10:06:36;100333.09;;;30.86;nan
59053;BME280;44843;44.728;10.396;2022-08-01T10:09:29;100326.00;;;30.85;nan
59053;BME280;44843;44.728;10.396;2022-08-01T10:11:56;100322.06;;;30.87;nan
59053;BME280;44843;44.728;10.396;2022-08-01T10:14:24;100324.38;;;31.02;nan
59053;BME280;44843;44.728;10.396;2022-08-01T10:16:51;100326.94;;;30.97;nan
59053;BME280;44843;44.728;10.396;2022-08-01T10:19:18;100313.97;;;31.24;nan
59053;BME280;44843;44.728;10.396;2022-08-01T10:21:44;100318.34;;;31.37;nan
59053;BME280;44843;44.728;10.396;2022-08-01T10:24:15;100320.97;;;31.44;nan
59053;BME280;44843;44.728;10.396;2022-08-01T10:26:41;100307.66;;;31.49;nan
59053;BME280;44843;44.728;10.396;2022-08-01T10:29:09;100302.91;;;31.63;nan
59053;BME280;44843;44.728;10.396;2022-08-01T10:31:34;100311.47;;;31.83;nan
59053;BME280;44843;44.728;10.396;2022-08-01T10:34:01;100302.25;;;31.91;nan
59053;BME280;44843;44.728;10.396;2022-08-01T10:36:27;100298.63;;;31.97;nan
59053;BME280;44843;44.728;10.396;2022-08-01T10:38:55;100296.78;;;32.09;nan
59053;BME280;44843;44.728;10.396;2022-08-01T10:41:21;100298.66;;;32.09;nan
59053;BME280;44843;44.728;10.396;2022-08-01T10:43:47;100293.03;;;32.10;nan
59053;BME280;44843;44.728;10.396;2022-08-01T10:46:12;100286.81;;;32.10;nan
59053;BME280;44843;44.728;10.396;2022-08-01T10:48:47;100283.63;;;32.01;nan
59053;BME280;44843;44.728;10.396;2022-08-01T10:51:15;100279.78;;;32.09;nan
59053;BME280;44843;44.728;10.396;2022-08-01T10:53:50;100284.81;;;32.05;nan
59053;BME280;44843;44.728;10.396;2022-08-01T10:56:16;100274.97;;;32.11;nan
59053;BME280;44843;44.728;10.396;2022-08-01T10:58:43;100286.22;;;32.08;nan
59053;BME280;44843;44.728;10.396;2022-08-01T11:03:43;100272.41;;;32.04;nan
59053;BME280;44843;44.728;10.396;2022-08-01T11:06:20;100268.41;;;32.18;nan
59053;BME280;44843;44.728;10.396;2022-08-01T11:08:53;100264.78;;;32.25;nan
59053;BME280;44843;44.728;10.396;2022-08-01T11:11:19;100271.31;;;31.93;nan
59053;BME280;44843;44.728;10.396;2022-08-01T11:14:04;100259.13;;;31.91;nan
59053;BME280;44843;44.728;10.396;2022-08-01T11:16:35;100255.03;;;31.88;nan
59053;BME280;44843;44.728;10.396;2022-08-01T11:19:02;100241.66;;;31.81;nan
59053;BME280;44843;44.728;10.396;2022-08-01T11:29:43;100231.66;;;31.70;nan
59053;BME280;44843;44.728;10.396;2022-08-01T11:32:25;100232.41;;;31.77;nan
59053;BME280;44843;44.728;10.396;2022-08-01T11:34:55;100225.56;;;31.75;nan
59053;BME280;44843;44.728;10.396;2022-08-01T11:37:28;100215.72;;;31.92;nan
59053;BME280;44843;44.728;10.396;2022-08-01T11:42:44;100208.97;;;32.13;nan
59053;BME280;44843;44.728;10.396;2022-08-01T11:45:09;100208.25;;;32.30;nan
59053;BME280;44843;44.728;10.396;2022-08-01T11:47:48;100205.06;;;32.33;nan
59053;BME280;44843;44.728;10.396;2022-08-01T11:52:58;100205.44;;;32.25;nan
59053;BME280;44843;44.728;10.396;2022-08-01T11:55:26;100206.25;;;32.37;nan
59053;BME280;44843;44.728;10.396;2022-08-01T11:57:59;100195.22;;;32.38;nan
59053;BME280;44843;44.728;10.396;2022-08-01T12:00:25;100186.63;;;32.53;nan
59053;BME280;44843;44.728;10.396;2022-08-01T12:02:59;100185.97;;;32.75;nan
59053;BME280;44843;44.728;10.396;2022-08-01T12:05:26;100182.53;;;32.62;nan
59053;BME280;44843;44.728;10.396;2022-08-01T12:07:53;100178.66;;;32.58;nan
59053;BME280;44843;44.728;10.396;2022-08-01T12:10:20;100179.72;;;32.86;nan
59053;BME280;44843;44.728;10.396;2022-08-01T12:12:50;100175.75;;;32.77;nan
59053;BME280;44843;44.728;10.396;2022-08-01T12:15:18;100169.56;;;32.76;nan
59053;BME280;44843;44.728;10.396;2022-08-01T12:17:48;100161.09;;;32.73;nan
59053;BME280;44843;44.728;10.396;2022-08-01T12:20:20;100161.22;;;32.78;nan
59053;BME280;44843;44.728;10.396;2022-08-01T12:22:46;100155.09;;;32.82;nan
59053;BME280;44843;44.728;10.396;2022-08-01T12:25:14;100161.31;;;32.83;nan
59053;BME280;44843;44.728;10.396;2022-08-01T12:27:42;100156.06;;;32.76;nan
59053;BME280;44843;44.728;10.396;2022-08-01T12:30:13;100150.22;;;32.68;nan
59053;BME280;44843;44.728;10.396;2022-08-01T12:32:41;100147.66;;;32.61;nan
59053;BME280;44843;44.728;10.396;2022-08-01T12:35:18;100147.56;;;32.56;nan
59053;BME280;44843;44.728;10.396;2022-08-01T12:37:49;100143.66;;;32.63;nan
59053;BME280;44843;44.728;10.396;2022-08-01T12:40:18;100151.94;;;32.45;nan
59053;BME280;44843;44.728;10.396;2022-08-01T12:42:47;100143.00;;;32.44;nan
59053;BME280;44843;44.728;10.396;2022-08-01T12:45:15;100146.16;;;32.53;nan
59053;BME280;44843;44.728;10.396;2022-08-01T12:47:42;100136.88;;;32.61;nan
59053;BME280;44843;44.728;10.396;2022-08-01T12:50:11;100130.53;;;32.55;nan
59053;BME280;44843;44.728;10.396;2022-08-01T12:52:38;100140.00;;;32.70;nan
59053;BME280;44843;44.728;10.396;2022-08-01T12:55:05;100135.47;;;32.58;nan
59053;BME280;44843;44.728;10.396;2022-08-01T12:57:31;100122.72;;;32.54;nan
59053;BME280;44843;44.728;10.396;2022-08-01T13:02:37;100127.22;;;32.94;nan
59053;BME280;44843;44.728;10.396;2022-08-01T13:05:04;100127.63;;;33.02;nan
59053;BME280;44843;44.728;10.396;2022-08-01T13:07:41;100124.00;;;33.09;nan
59053;BME280;44843;44.728;10.396;2022-08-01T13:10:07;100134.78;;;33.09;nan
59053;BME280;44843;44.728;10.396;2022-08-01T13:12:33;100128.56;;;33.08;nan
59053;BME280;44843;44.728;10.396;2022-08-01T13:14:58;100118.59;;;33.09;nan
59053;BME280;44843;44.728;10.396;2022-08-01T13:17:33;100124.50;;;32.94;nan
59053;BME280;44843;44.728;10.396;2022-08-01T13:20:01;100119.75;;;33.01;nan
59053;BME280;44843;44.728;10.396;2022-08-01T13:22:34;100121.88;;;32.99;nan
59053;BME280;44843;44.728;10.396;2022-08-01T13:25:13;100112.00;;;33.04;nan
59053;BME280;44843;44.728;10.396;2022-08-01T13:27:38;100108.16;;;33.00;nan
59053;BME280;44843;44.728;10.396;2022-08-01T13:30:30;100114.41;;;33.18;nan
59053;BME280;44843;44.728;10.396;2022-08-01T13:32:59;100104.66;;;33.17;nan
59053;BME280;44843;44.728;10.396;2022-08-01T13:35:25;100105.72;;;33.16;nan
59053;BME280;44843;44.728;10.396;2022-08-01T13:37:51;100103.09;;;33.21;nan